Terminal Aerodrome Forecast
Issued by NWS Blacksburg, VA

Current Version | Previous Version | Graphics & Text | Print | Product List | Glossary On
Versions: 1 2 3 4 5 6 7 8 9 10 11 12 13 14 15 16 17 18 19
000
FTUS41 KRNK 190531
TAFBLF
TAF
KBLF 190531Z 1906/2006 16007KT 6SM -SHRA OVC016
      TEMPO 1909/1912 2SM SHRA OVC007
     FM191200 17008KT P6SM SCT015 BKN035
     FM191700 20010KT P6SM VCSH BKN040=

USA.gov is the U.S. government's official web portal to all federal, state and local government web resources and services.